sensor_id;sensor_type;location;lat;lon;timestamp;P1;durP1;ratioP1;P2;durP2;ratioP2
18399;SDS011;9326;49.468;11.008;2023-05-07T05:02:58;6.20;;;5.60;;
18399;SDS011;9326;49.468;11.008;2023-05-07T05:05:25;6.40;;;5.80;;
18399;SDS011;9326;49.468;11.008;2023-05-07T05:07:53;7.17;;;6.10;;
18399;SDS011;9326;49.468;11.008;2023-05-07T05:10:20;8.20;;;6.27;;
18399;SDS011;9326;49.468;11.008;2023-05-07T05:12:47;6.93;;;6.33;;
18399;SDS011;9326;49.468;11.008;2023-05-07T05:15:14;6.77;;;6.27;;
18399;SDS011;9326;49.468;11.008;2023-05-07T05:17:41;7.20;;;6.30;;
18399;SDS011;9326;49.468;11.008;2023-05-07T05:20:10;7.53;;;6.33;;
18399;SDS011;9326;49.468;11.008;2023-05-07T05:22:37;7.17;;;6.50;;
18399;SDS011;9326;49.468;11.008;2023-05-07T05:25:04;7.03;;;6.33;;
18399;SDS011;9326;49.468;11.008;2023-05-07T05:27:31;6.90;;;6.20;;
18399;SDS011;9326;49.468;11.008;2023-05-07T05:29:58;6.90;;;6.07;;
18399;SDS011;9326;49.468;11.008;2023-05-07T05:32:25;6.80;;;6.07;;
18399;SDS011;9326;49.468;11.008;2023-05-07T05:34:52;6.37;;;5.73;;
18399;SDS011;9326;49.468;11.008;2023-05-07T05:37:21;6.73;;;6.07;;
18399;SDS011;9326;49.468;11.008;2023-05-07T05:39:48;6.57;;;5.97;;
18399;SDS011;9326;49.468;11.008;2023-05-07T05:42:16;7.07;;;6.23;;
18399;SDS011;9326;49.468;11.008;2023-05-07T05:44:43;6.80;;;6.20;;
18399;SDS011;9326;49.468;11.008;2023-05-07T05:47:10;6.37;;;5.87;;
18399;SDS011;9326;49.468;11.008;2023-05-07T05:49:37;6.60;;;5.97;;
18399;SDS011;9326;49.468;11.008;2023-05-07T05:52:04;6.93;;;6.30;;
18399;SDS011;9326;49.468;11.008;2023-05-07T05:54:32;7.00;;;6.40;;
18399;SDS011;9326;49.468;11.008;2023-05-07T05:56:59;7.20;;;6.50;;
18399;SDS011;9326;49.468;11.008;2023-05-07T05:59:29;6.57;;;5.97;;
18399;SDS011;9326;49.468;11.008;2023-05-07T06:01:56;6.93;;;6.33;;
18399;SDS011;9326;49.468;11.008;2023-05-07T06:04:23;6.77;;;6.07;;
18399;SDS011;9326;49.468;11.008;2023-05-07T06:06:50;6.60;;;6.00;;
18399;SDS011;9326;49.468;11.008;2023-05-07T06:09:17;7.07;;;6.33;;
18399;SDS011;9326;49.468;11.008;2023-05-07T06:11:45;7.30;;;6.40;;
18399;SDS011;9326;49.468;11.008;2023-05-07T06:14:12;6.80;;;6.20;;
18399;SDS011;9326;49.468;11.008;2023-05-07T06:16:39;7.10;;;6.37;;
18399;SDS011;9326;49.468;11.008;2023-05-07T06:19:06;7.20;;;6.50;;
18399;SDS011;9326;49.468;11.008;2023-05-07T06:21:34;6.63;;;6.03;;
18399;SDS011;9326;49.468;11.008;2023-05-07T06:24:01;6.57;;;5.87;;
18399;SDS011;9326;49.468;11.008;2023-05-07T06:26:28;7.00;;;6.30;;
18399;SDS011;9326;49.468;11.008;2023-05-07T06:28:56;7.20;;;6.47;;
18399;SDS011;9326;49.468;11.008;2023-05-07T06:31:28;6.67;;;6.00;;
18399;SDS011;9326;49.468;11.008;2023-05-07T06:33:55;6.87;;;6.13;;
18399;SDS011;9326;49.468;11.008;2023-05-07T06:36:23;6.90;;;6.30;;
18399;SDS011;9326;49.468;11.008;2023-05-07T06:38:51;7.43;;;6.10;;
18399;SDS011;9326;49.468;11.008;2023-05-07T06:41:18;6.63;;;6.13;;
18399;SDS011;9326;49.468;11.008;2023-05-07T06:43:45;6.20;;;5.60;;
18399;SDS011;9326;49.468;11.008;2023-05-07T06:46:13;6.37;;;5.87;;
18399;SDS011;9326;49.468;11.008;2023-05-07T06:48:40;6.77;;;6.13;;
18399;SDS011;9326;49.468;11.008;2023-05-07T06:51:07;7.03;;;6.10;;
18399;SDS011;9326;49.468;11.008;2023-05-07T06:53:34;6.50;;;6.00;;
18399;SDS011;9326;49.468;11.008;2023-05-07T06:56:02;7.00;;;6.30;;
18399;SDS011;9326;49.468;11.008;2023-05-07T06:58:29;6.73;;;6.13;;
18399;SDS011;9326;49.468;11.008;2023-05-07T07:00:56;7.43;;;5.93;;
18399;SDS011;9326;49.468;11.008;2023-05-07T07:03:24;5.73;;;5.10;;
18399;SDS011;9326;49.468;11.008;2023-05-07T07:05:52;5.87;;;5.33;;
18399;SDS011;9326;49.468;11.008;2023-05-07T07:08:19;6.03;;;5.53;;
18399;SDS011;9326;49.468;11.008;2023-05-07T07:10:47;6.40;;;5.67;;
18399;SDS011;9326;49.468;11.008;2023-05-07T07:13:14;6.27;;;5.67;;
18399;SDS011;9326;49.468;11.008;2023-05-07T07:15:41;6.33;;;5.73;;
18399;SDS011;9326;49.468;11.008;2023-05-07T07:18:08;6.40;;;5.80;;
18399;SDS011;9326;49.468;11.008;2023-05-07T07:20:37;6.30;;;5.70;;
18399;SDS011;9326;49.468;11.008;2023-05-07T07:23:04;6.43;;;5.83;;
18399;SDS011;9326;49.468;11.008;2023-05-07T07:25:31;7.27;;;5.97;;
18399;SDS011;9326;49.468;11.008;2023-05-07T07:27:58;6.43;;;5.83;;
18399;SDS011;9326;49.468;11.008;2023-05-07T07:30:25;5.80;;;5.27;;
18399;SDS011;9326;49.468;11.008;2023-05-07T07:32:52;6.77;;;5.77;;
18399;SDS011;9326;49.468;11.008;2023-05-07T07:35:20;6.10;;;5.50;;
18399;SDS011;9326;49.468;11.008;2023-05-07T07:37:48;6.20;;;5.50;;
18399;SDS011;9326;49.468;11.008;2023-05-07T07:40:16;8.80;;;5.57;;
18399;SDS011;9326;49.468;11.008;2023-05-07T07:42:43;6.80;;;6.13;;
18399;SDS011;9326;49.468;11.008;2023-05-07T07:45:10;5.93;;;5.40;;
18399;SDS011;9326;49.468;11.008;2023-05-07T07:47:37;6.50;;;5.90;;
18399;SDS011;9326;49.468;11.008;2023-05-07T07:50:05;5.53;;;5.10;;
18399;SDS011;9326;49.468;11.008;2023-05-07T07:52:32;5.90;;;5.40;;
18399;SDS011;9326;49.468;11.008;2023-05-07T07:55:00;7.50;;;5.70;;
18399;SDS011;9326;49.468;11.008;2023-05-07T07:57:28;5.37;;;4.93;;
18399;SDS011;9326;49.468;11.008;2023-05-07T07:59:55;5.93;;;5.33;;
18399;SDS011;9326;49.468;11.008;2023-05-07T08:02:22;5.30;;;4.90;;
18399;SDS011;9326;49.468;11.008;2023-05-07T08:04:49;6.17;;;5.67;;
18399;SDS011;9326;49.468;11.008;2023-05-07T08:07:16;6.20;;;5.70;;
18399;SDS011;9326;49.468;11.008;2023-05-07T08:09:45;6.00;;;5.50;;
18399;SDS011;9326;49.468;11.008;2023-05-07T08:12:14;5.83;;;5.30;;
18399;SDS011;9326;49.468;11.008;2023-05-07T08:14:41;5.67;;;5.17;;
18399;SDS011;9326;49.468;11.008;2023-05-07T08:17:08;5.23;;;4.73;;
18399;SDS011;9326;49.468;11.008;2023-05-07T08:19:35;5.60;;;5.10;;
18399;SDS011;9326;49.468;11.008;2023-05-07T08:22:02;5.77;;;5.27;;
18399;SDS011;9326;49.468;11.008;2023-05-07T08:24:30;5.47;;;4.97;;
18399;SDS011;9326;49.468;11.008;2023-05-07T08:26:57;5.63;;;5.13;;
18399;SDS011;9326;49.468;11.008;2023-05-07T08:29:26;6.00;;;5.50;;
18399;SDS011;9326;49.468;11.008;2023-05-07T08:31:53;5.83;;;5.33;;
18399;SDS011;9326;49.468;11.008;2023-05-07T08:34:20;5.73;;;5.23;;
18399;SDS011;9326;49.468;11.008;2023-05-07T08:36:47;5.87;;;5.23;;
18399;SDS011;9326;49.468;11.008;2023-05-07T08:39:15;5.30;;;4.80;;
18399;SDS011;9326;49.468;11.008;2023-05-07T08:41:44;6.10;;;5.60;;
18399;SDS011;9326;49.468;11.008;2023-05-07T08:44:12;5.30;;;4.83;;
18399;SDS011;9326;49.468;11.008;2023-05-07T08:46:41;5.27;;;4.77;;
18399;SDS011;9326;49.468;11.008;2023-05-07T08:49:11;5.13;;;4.73;;
18399;SDS011;9326;49.468;11.008;2023-05-07T08:51:38;5.37;;;4.87;;
18399;SDS011;9326;49.468;11.008;2023-05-07T08:54:05;4.80;;;4.40;;
18399;SDS011;9326;49.468;11.008;2023-05-07T08:56:33;5.27;;;4.80;;
18399;SDS011;9326;49.468;11.008;2023-05-07T08:59:00;5.10;;;4.70;;
18399;SDS011;9326;49.468;11.008;2023-05-07T09:01:28;5.40;;;4.97;;
18399;SDS011;9326;49.468;11.008;2023-05-07T09:03:57;5.27;;;4.77;;
18399;SDS011;9326;49.468;11.008;2023-05-07T09:06:24;5.00;;;4.60;;
18399;SDS011;9326;49.468;11.008;2023-05-07T09:08:51;5.33;;;4.83;;
18399;SDS011;9326;49.468;11.008;2023-05-07T09:11:22;5.10;;;4.60;;
18399;SDS011;9326;49.468;11.008;2023-05-07T09:13:52;4.67;;;4.37;;
18399;SDS011;9326;49.468;11.008;2023-05-07T09:16:20;5.13;;;4.73;;
18399;SDS011;9326;49.468;11.008;2023-05-07T09:18:50;5.07;;;4.67;;
18399;SDS011;9326;49.468;11.008;2023-05-07T09:21:19;5.07;;;4.57;;
18399;SDS011;9326;49.468;11.008;2023-05-07T09:23:52;4.97;;;4.57;;
18399;SDS011;9326;49.468;11.008;2023-05-07T09:26:21;4.30;;;4.00;;
18399;SDS011;9326;49.468;11.008;2023-05-07T09:28:48;4.33;;;4.03;;
18399;SDS011;9326;49.468;11.008;2023-05-07T09:31:15;4.50;;;4.13;;
18399;SDS011;9326;49.468;11.008;2023-05-07T09:33:42;4.87;;;4.37;;
18399;SDS011;9326;49.468;11.008;2023-05-07T09:36:09;5.87;;;4.67;;
18399;SDS011;9326;49.468;11.008;2023-05-07T09:38:38;5.17;;;4.67;;
18399;SDS011;9326;49.468;11.008;2023-05-07T09:41:05;5.00;;;4.60;;
18399;SDS011;9326;49.468;11.008;2023-05-07T09:43:33;5.40;;;4.90;;
18399;SDS011;9326;49.468;11.008;2023-05-07T09:46:02;5.10;;;4.70;;
18399;SDS011;9326;49.468;11.008;2023-05-07T09:48:29;5.87;;;4.80;;
18399;SDS011;9326;49.468;11.008;2023-05-07T09:50:57;4.73;;;4.33;;
18399;SDS011;9326;49.468;11.008;2023-05-07T09:53:25;4.77;;;4.27;;
18399;SDS011;9326;49.468;11.008;2023-05-07T09:55:54;4.93;;;4.47;;
18399;SDS011;9326;49.468;11.008;2023-05-07T09:58:22;5.07;;;4.50;;
18399;SDS011;9326;49.468;11.008;2023-05-07T10:00:49;4.80;;;4.30;;
18399;SDS011;9326;49.468;11.008;2023-05-07T10:03:17;4.40;;;4.10;;
18399;SDS011;9326;49.468;11.008;2023-05-07T10:05:45;4.63;;;4.27;;
18399;SDS011;9326;49.468;11.008;2023-05-07T10:08:13;4.93;;;4.40;;
18399;SDS011;9326;49.468;11.008;2023-05-07T10:10:41;5.20;;;4.80;;
18399;SDS011;9326;49.468;11.008;2023-05-07T10:13:11;4.77;;;4.37;;
18399;SDS011;9326;49.468;11.008;2023-05-07T10:15:38;4.50;;;4.20;;
18399;SDS011;9326;49.468;11.008;2023-05-07T10:18:06;3.80;;;3.60;;
18399;SDS011;9326;49.468;11.008;2023-05-07T10:20:33;4.67;;;4.27;;
18399;SDS011;9326;49.468;11.008;2023-05-07T10:23:00;4.30;;;4.00;;
18399;SDS011;9326;49.468;11.008;2023-05-07T10:25:31;4.50;;;4.17;;
18399;SDS011;9326;49.468;11.008;2023-05-07T10:27:59;4.53;;;4.17;;
18399;SDS011;9326;49.468;11.008;2023-05-07T10:30:30;4.30;;;4.00;;
18399;SDS011;9326;49.468;11.008;2023-05-07T10:33:01;4.73;;;4.33;;
18399;SDS011;9326;49.468;11.008;2023-05-07T10:35:31;4.77;;;4.30;;
18399;SDS011;9326;49.468;11.008;2023-05-07T10:38:00;4.10;;;3.80;;
18399;SDS011;9326;49.468;11.008;2023-05-07T10:40:28;4.40;;;4.00;;
18399;SDS011;9326;49.468;11.008;2023-05-07T10:42:55;3.80;;;3.60;;
18399;SDS011;9326;49.468;11.008;2023-05-07T10:45:23;4.00;;;3.70;;
18399;SDS011;9326;49.468;11.008;2023-05-07T10:48:07;3.57;;;3.27;;
18399;SDS011;9326;49.468;11.008;2023-05-07T10:50:35;3.50;;;3.20;;
18399;SDS011;9326;49.468;11.008;2023-05-07T10:56:23;3.07;;;2.87;;
18399;SDS011;9326;49.468;11.008;2023-05-07T10:58:51;4.03;;;3.03;;
18399;SDS011;9326;49.468;11.008;2023-05-07T11:04:13;4.10;;;3.43;;
18399;SDS011;9326;49.468;11.008;2023-05-07T11:06:41;3.50;;;3.20;;
18399;SDS011;9326;49.468;11.008;2023-05-07T11:09:08;3.77;;;2.83;;
18399;SDS011;9326;49.468;11.008;2023-05-07T11:11:44;3.00;;;2.80;;
18399;SDS011;9326;49.468;11.008;2023-05-07T11:14:12;3.17;;;2.97;;
18399;SDS011;9326;49.468;11.008;2023-05-07T11:16:39;3.50;;;3.20;;
18399;SDS011;9326;49.468;11.008;2023-05-07T11:19:07;3.37;;;3.13;;
18399;SDS011;9326;49.468;11.008;2023-05-07T11:21:36;3.50;;;3.20;;
18399;SDS011;9326;49.468;11.008;2023-05-07T11:24:03;3.07;;;2.70;;
18399;SDS011;9326;49.468;11.008;2023-05-07T11:26:31;2.93;;;2.73;;
18399;SDS011;9326;49.468;11.008;2023-05-07T11:29:10;3.10;;;2.90;;
18399;SDS011;9326;49.468;11.008;2023-05-07T11:31:37;3.03;;;2.73;;
18399;SDS011;9326;49.468;11.008;2023-05-07T11:34:04;3.10;;;2.90;;
18399;SDS011;9326;49.468;11.008;2023-05-07T11:36:32;3.60;;;3.30;;
18399;SDS011;9326;49.468;11.008;2023-05-07T11:39:01;3.40;;;3.10;;
18399;SDS011;9326;49.468;11.008;2023-05-07T11:41:34;3.27;;;3.00;;
18399;SDS011;9326;49.468;11.008;2023-05-07T11:44:02;3.80;;;3.13;;
18399;SDS011;9326;49.468;11.008;2023-05-07T11:46:29;3.03;;;2.83;;
18399;SDS011;9326;49.468;11.008;2023-05-07T11:48:56;3.27;;;3.00;;
18399;SDS011;9326;49.468;11.008;2023-05-07T11:51:24;3.50;;;3.10;;
18399;SDS011;9326;49.468;11.008;2023-05-07T11:53:52;3.57;;;3.27;;
18399;SDS011;9326;49.468;11.008;2023-05-07T11:56:21;3.53;;;3.07;;
18399;SDS011;9326;49.468;11.008;2023-05-07T11:58:48;2.80;;;2.60;;
18399;SDS011;9326;49.468;11.008;2023-05-07T12:01:17;3.00;;;2.67;;
18399;SDS011;9326;49.468;11.008;2023-05-07T12:03:44;2.80;;;2.60;;
18399;SDS011;9326;49.468;11.008;2023-05-07T12:06:12;2.47;;;2.37;;
18399;SDS011;9326;49.468;11.008;2023-05-07T12:08:40;2.33;;;2.13;;
18399;SDS011;9326;49.468;11.008;2023-05-07T12:11:07;2.57;;;2.30;;
18399;SDS011;9326;49.468;11.008;2023-05-07T12:13:37;2.40;;;2.20;;
18399;SDS011;9326;49.468;11.008;2023-05-07T12:16:05;2.40;;;2.30;;
18399;SDS011;9326;49.468;11.008;2023-05-07T12:18:33;3.53;;;2.43;;
18399;SDS011;9326;49.468;11.008;2023-05-07T12:21:01;2.40;;;2.20;;
18399;SDS011;9326;49.468;11.008;2023-05-07T12:23:28;2.80;;;2.53;;
18399;SDS011;9326;49.468;11.008;2023-05-07T12:25:55;2.50;;;2.30;;
18399;SDS011;9326;49.468;11.008;2023-05-07T12:28:22;2.97;;;2.47;;
18399;SDS011;9326;49.468;11.008;2023-05-07T12:30:51;2.60;;;2.40;;
18399;SDS011;9326;49.468;11.008;2023-05-07T12:33:18;2.87;;;2.67;;
18399;SDS011;9326;49.468;11.008;2023-05-07T12:35:47;3.10;;;2.90;;
18399;SDS011;9326;49.468;11.008;2023-05-07T12:38:16;3.57;;;3.27;;
18399;SDS011;9326;49.468;11.008;2023-05-07T12:40:44;3.33;;;3.03;;
18399;SDS011;9326;49.468;11.008;2023-05-07T12:43:15;3.10;;;2.90;;
18399;SDS011;9326;49.468;11.008;2023-05-07T12:45:43;3.40;;;3.10;;
18399;SDS011;9326;49.468;11.008;2023-05-07T12:48:12;3.93;;;3.10;;
18399;SDS011;9326;49.468;11.008;2023-05-07T12:50:39;3.37;;;3.07;;
18399;SDS011;9326;49.468;11.008;2023-05-07T12:53:06;3.90;;;3.60;;
18399;SDS011;9326;49.468;11.008;2023-05-07T12:55:39;4.13;;;3.60;;
18399;SDS011;9326;49.468;11.008;2023-05-07T12:58:14;5.23;;;3.30;;
18399;SDS011;9326;49.468;11.008;2023-05-07T13:00:41;3.73;;;3.33;;
18399;SDS011;9326;49.468;11.008;2023-05-07T13:03:09;3.40;;;3.10;;
18399;SDS011;9326;49.468;11.008;2023-05-07T13:05:37;3.47;;;3.17;;
18399;SDS011;9326;49.468;11.008;2023-05-07T13:08:04;3.50;;;3.13;;
18399;SDS011;9326;49.468;11.008;2023-05-07T13:10:34;3.30;;;3.00;;
18399;SDS011;9326;49.468;11.008;2023-05-07T13:13:01;3.27;;;2.97;;
18399;SDS011;9326;49.468;11.008;2023-05-07T13:15:28;3.30;;;3.00;;
18399;SDS011;9326;49.468;11.008;2023-05-07T13:17:55;2.93;;;2.73;;
18399;SDS011;9326;49.468;11.008;2023-05-07T13:20:22;3.40;;;3.10;;
18399;SDS011;9326;49.468;11.008;2023-05-07T13:22:51;3.63;;;3.20;;
18399;SDS011;9326;49.468;11.008;2023-05-07T13:25:18;3.83;;;2.80;;
18399;SDS011;9326;49.468;11.008;2023-05-07T13:27:45;2.60;;;2.40;;
18399;SDS011;9326;49.468;11.008;2023-05-07T13:30:12;3.23;;;2.77;;
18399;SDS011;9326;49.468;11.008;2023-05-07T13:32:39;2.90;;;2.70;;
18399;SDS011;9326;49.468;11.008;2023-05-07T13:35:07;3.00;;;2.80;;
18399;SDS011;9326;49.468;11.008;2023-05-07T13:37:34;3.00;;;2.80;;
18399;SDS011;9326;49.468;11.008;2023-05-07T13:40:03;3.27;;;2.97;;
18399;SDS011;9326;49.468;11.008;2023-05-07T13:42:30;2.90;;;2.70;;
18399;SDS011;9326;49.468;11.008;2023-05-07T13:44:57;2.63;;;2.43;;
18399;SDS011;9326;49.468;11.008;2023-05-07T13:47:24;3.10;;;2.80;;
18399;SDS011;9326;49.468;11.008;2023-05-07T13:49:51;2.63;;;2.43;;
18399;SDS011;9326;49.468;11.008;2023-05-07T13:52:18;2.77;;;2.57;;
18399;SDS011;9326;49.468;11.008;2023-05-07T13:54:46;3.17;;;2.87;;
18399;SDS011;9326;49.468;11.008;2023-05-07T13:57:14;2.80;;;2.60;;
18399;SDS011;9326;49.468;11.008;2023-05-07T13:59:42;3.00;;;2.80;;
18399;SDS011;9326;49.468;11.008;2023-05-07T14:02:09;3.20;;;2.90;;
18399;SDS011;9326;49.468;11.008;2023-05-07T14:04:37;3.03;;;2.73;;
18399;SDS011;9326;49.468;11.008;2023-05-07T14:07:04;2.93;;;2.73;;
18399;SDS011;9326;49.468;11.008;2023-05-07T14:09:31;3.00;;;2.80;;
18399;SDS011;9326;49.468;11.008;2023-05-07T14:11:58;2.70;;;2.50;;
18399;SDS011;9326;49.468;11.008;2023-05-07T14:14:27;2.90;;;2.70;;
18399;SDS011;9326;49.468;11.008;2023-05-07T14:16:54;3.13;;;2.70;;
18399;SDS011;9326;49.468;11.008;2023-05-07T14:19:21;3.13;;;2.93;;
18399;SDS011;9326;49.468;11.008;2023-05-07T14:21:48;3.07;;;2.70;;
18399;SDS011;9326;49.468;11.008;2023-05-07T14:24:15;3.83;;;2.93;;
18399;SDS011;9326;49.468;11.008;2023-05-07T14:26:42;2.90;;;2.70;;
18399;SDS011;9326;49.468;11.008;2023-05-07T14:29:10;3.70;;;2.90;;
18399;SDS011;9326;49.468;11.008;2023-05-07T14:31:38;2.90;;;2.70;;
18399;SDS011;9326;49.468;11.008;2023-05-07T14:34:05;2.90;;;2.70;;
18399;SDS011;9326;49.468;11.008;2023-05-07T14:36:32;3.17;;;2.80;;
18399;SDS011;9326;49.468;11.008;2023-05-07T14:38:59;2.83;;;2.63;;
18399;SDS011;9326;49.468;11.008;2023-05-07T14:41:27;3.10;;;2.90;;
18399;SDS011;9326;49.468;11.008;2023-05-07T14:43:54;3.70;;;3.30;;
18399;SDS011;9326;49.468;11.008;2023-05-07T14:46:21;3.40;;;3.10;;
18399;SDS011;9326;49.468;11.008;2023-05-07T14:48:51;3.27;;;3.00;;
18399;SDS011;9326;49.468;11.008;2023-05-07T14:51:18;3.10;;;2.90;;
18399;SDS011;9326;49.468;11.008;2023-05-07T14:53:45;3.13;;;2.83;;
18399;SDS011;9326;49.468;11.008;2023-05-07T14:56:12;3.70;;;3.40;;
18399;SDS011;9326;49.468;11.008;2023-05-07T14:58:39;3.67;;;3.37;;
18399;SDS011;9326;49.468;11.008;2023-05-07T15:01:06;3.70;;;3.40;;
18399;SDS011;9326;49.468;11.008;2023-05-07T15:03:33;3.93;;;3.63;;
18399;SDS011;9326;49.468;11.008;2023-05-07T15:06:02;3.70;;;3.40;;
18399;SDS011;9326;49.468;11.008;2023-05-07T15:08:30;3.63;;;3.33;;
18399;SDS011;9326;49.468;11.008;2023-05-07T15:10:57;3.43;;;3.13;;
18399;SDS011;9326;49.468;11.008;2023-05-07T15:13:24;3.50;;;3.30;;
18399;SDS011;9326;49.468;11.008;2023-05-07T15:15:51;3.63;;;3.40;;
18399;SDS011;9326;49.468;11.008;2023-05-07T15:18:18;3.67;;;3.37;;
18399;SDS011;9326;49.468;11.008;2023-05-07T15:20:45;3.60;;;3.30;;
18399;SDS011;9326;49.468;11.008;2023-05-07T15:23:13;3.53;;;3.23;;
18399;SDS011;9326;49.468;11.008;2023-05-07T15:25:40;3.43;;;3.17;;
18399;SDS011;9326;49.468;11.008;2023-05-07T15:28:07;3.57;;;3.27;;
18399;SDS011;9326;49.468;11.008;2023-05-07T15:30:34;3.73;;;3.43;;
18399;SDS011;9326;49.468;11.008;2023-05-07T15:33:02;3.07;;;2.87;;
18399;SDS011;9326;49.468;11.008;2023-05-07T15:35:29;3.87;;;3.47;;
18399;SDS011;9326;49.468;11.008;2023-05-07T15:37:56;3.63;;;3.33;;
18399;SDS011;9326;49.468;11.008;2023-05-07T15:40:25;3.83;;;3.53;;
18399;SDS011;9326;49.468;11.008;2023-05-07T15:42:53;3.90;;;3.60;;
18399;SDS011;9326;49.468;11.008;2023-05-07T15:45:21;5.03;;;3.90;;
18399;SDS011;9326;49.468;11.008;2023-05-07T15:47:48;4.03;;;3.73;;
18399;SDS011;9326;49.468;11.008;2023-05-07T15:50:15;4.23;;;3.70;;
18399;SDS011;9326;49.468;11.008;2023-05-07T15:52:42;3.50;;;3.30;;
18399;SDS011;9326;49.468;11.008;2023-05-07T15:55:11;4.13;;;3.83;;
18399;SDS011;9326;49.468;11.008;2023-05-07T15:57:40;3.70;;;3.40;;
18399;SDS011;9326;49.468;11.008;2023-05-07T16:00:07;3.50;;;3.20;;
18399;SDS011;9326;49.468;11.008;2023-05-07T16:02:36;3.80;;;3.50;;
18399;SDS011;9326;49.468;11.008;2023-05-07T16:05:03;3.77;;;3.47;;
18399;SDS011;9326;49.468;11.008;2023-05-07T16:07:32;3.63;;;3.33;;
18399;SDS011;9326;49.468;11.008;2023-05-07T16:10:00;3.60;;;3.40;;
18399;SDS011;9326;49.468;11.008;2023-05-07T16:12:27;3.83;;;3.53;;
18399;SDS011;9326;49.468;11.008;2023-05-07T16:14:55;3.80;;;3.50;;
18399;SDS011;9326;49.468;11.008;2023-05-07T16:17:22;4.10;;;3.80;;
18399;SDS011;9326;49.468;11.008;2023-05-07T16:19:50;3.70;;;3.23;;
18399;SDS011;9326;49.468;11.008;2023-05-07T16:22:17;3.80;;;3.50;;
18399;SDS011;9326;49.468;11.008;2023-05-07T16:24:44;4.10;;;3.80;;
18399;SDS011;9326;49.468;11.008;2023-05-07T16:27:11;3.97;;;3.67;;
18399;SDS011;9326;49.468;11.008;2023-05-07T16:29:38;3.90;;;3.60;;
18399;SDS011;9326;49.468;11.008;2023-05-07T16:32:07;4.27;;;3.57;;
18399;SDS011;9326;49.468;11.008;2023-05-07T16:34:34;3.57;;;3.27;;
18399;SDS011;9326;49.468;11.008;2023-05-07T16:37:01;3.70;;;3.40;;
18399;SDS011;9326;49.468;11.008;2023-05-07T16:39:29;3.80;;;3.33;;
18399;SDS011;9326;49.468;11.008;2023-05-07T16:41:56;3.60;;;3.30;;
18399;SDS011;9326;49.468;11.008;2023-05-07T16:44:23;3.63;;;3.33;;
18399;SDS011;9326;49.468;11.008;2023-05-07T16:46:50;3.70;;;3.40;;
18399;SDS011;9326;49.468;11.008;2023-05-07T16:49:19;3.90;;;3.60;;
18399;SDS011;9326;49.468;11.008;2023-05-07T16:51:46;3.83;;;3.33;;
18399;SDS011;9326;49.468;11.008;2023-05-07T16:54:14;3.37;;;3.17;;
18399;SDS011;9326;49.468;11.008;2023-05-07T16:56:41;3.40;;;3.10;;
18399;SDS011;9326;49.468;11.008;2023-05-07T16:59:08;3.70;;;3.40;;
18399;SDS011;9326;49.468;11.008;2023-05-07T17:01:36;4.00;;;3.20;;
18399;SDS011;9326;49.468;11.008;2023-05-07T17:04:03;3.70;;;3.40;;
18399;SDS011;9326;49.468;11.008;2023-05-07T17:06:31;3.57;;;3.27;;
18399;SDS011;9326;49.468;11.008;2023-05-07T17:08:58;3.60;;;3.30;;
18399;SDS011;9326;49.468;11.008;2023-05-07T17:11:25;3.43;;;3.13;;
18399;SDS011;9326;49.468;11.008;2023-05-07T17:13:55;3.43;;;3.20;;
18399;SDS011;9326;49.468;11.008;2023-05-07T17:16:22;3.50;;;3.20;;
18399;SDS011;9326;49.468;11.008;2023-05-07T17:18:49;3.50;;;3.20;;
18399;SDS011;9326;49.468;11.008;2023-05-07T17:21:16;3.60;;;3.30;;
18399;SDS011;9326;49.468;11.008;2023-05-07T17:23:44;2.90;;;2.70;;
18399;SDS011;9326;49.468;11.008;2023-05-07T17:26:11;3.17;;;2.97;;
18399;SDS011;9326;49.468;11.008;2023-05-07T17:28:38;2.80;;;2.60;;
18399;SDS011;9326;49.468;11.008;2023-05-07T17:31:06;3.00;;;2.80;;
18399;SDS011;9326;49.468;11.008;2023-05-07T17:33:33;3.00;;;2.70;;
18399;SDS011;9326;49.468;11.008;2023-05-07T17:36:00;3.00;;;2.80;;
18399;SDS011;9326;49.468;11.008;2023-05-07T17:38:28;3.23;;;2.63;;
18399;SDS011;9326;49.468;11.008;2023-05-07T17:40:56;3.73;;;3.40;;
18399;SDS011;9326;49.468;11.008;2023-05-07T17:43:23;3.63;;;3.07;;
18399;SDS011;9326;49.468;11.008;2023-05-07T17:45:51;3.27;;;3.07;;
18399;SDS011;9326;49.468;11.008;2023-05-07T17:48:18;4.40;;;3.47;;
18399;SDS011;9326;49.468;11.008;2023-05-07T17:50:45;4.30;;;3.30;;
18399;SDS011;9326;49.468;11.008;2023-05-07T17:53:12;3.47;;;3.17;;
18399;SDS011;9326;49.468;11.008;2023-05-07T17:55:40;3.27;;;3.00;;
18399;SDS011;9326;49.468;11.008;2023-05-07T17:58:09;3.77;;;3.30;;
18399;SDS011;9326;49.468;11.008;2023-05-07T18:00:36;3.77;;;3.47;;
18399;SDS011;9326;49.468;11.008;2023-05-07T18:03:03;3.60;;;3.30;;
18399;SDS011;9326;49.468;11.008;2023-05-07T18:05:31;3.60;;;3.30;;
18399;SDS011;9326;49.468;11.008;2023-05-07T18:08:01;3.87;;;3.47;;
18399;SDS011;9326;49.468;11.008;2023-05-07T18:10:28;3.70;;;3.40;;
18399;SDS011;9326;49.468;11.008;2023-05-07T18:12:55;3.50;;;3.20;;
18399;SDS011;9326;49.468;11.008;2023-05-07T18:15:23;3.53;;;3.23;;
18399;SDS011;9326;49.468;11.008;2023-05-07T18:17:50;3.13;;;2.93;;
18399;SDS011;9326;49.468;11.008;2023-05-07T18:20:17;3.80;;;3.50;;
18399;SDS011;9326;49.468;11.008;2023-05-07T18:22:44;3.30;;;3.10;;
18399;SDS011;9326;49.468;11.008;2023-05-07T18:25:11;3.23;;;2.93;;
18399;SDS011;9326;49.468;11.008;2023-05-07T18:27:38;3.57;;;3.27;;
18399;SDS011;9326;49.468;11.008;2023-05-07T18:30:06;3.80;;;3.50;;
18399;SDS011;9326;49.468;11.008;2023-05-07T18:32:34;4.03;;;3.40;;
18399;SDS011;9326;49.468;11.008;2023-05-07T18:35:02;3.70;;;3.30;;
18399;SDS011;9326;49.468;11.008;2023-05-07T18:37:29;3.30;;;3.00;;
18399;SDS011;9326;49.468;11.008;2023-05-07T18:39:56;6.23;;;3.33;;
18399;SDS011;9326;49.468;11.008;2023-05-07T18:42:25;3.43;;;3.13;;
18399;SDS011;9326;49.468;11.008;2023-05-07T18:44:52;3.30;;;3.10;;
18399;SDS011;9326;49.468;11.008;2023-05-07T18:47:19;3.73;;;3.23;;
18399;SDS011;9326;49.468;11.008;2023-05-07T18:49:48;3.57;;;3.27;;
18399;SDS011;9326;49.468;11.008;2023-05-07T18:52:15;3.83;;;3.53;;
18399;SDS011;9326;49.468;11.008;2023-05-07T18:54:45;4.57;;;3.43;;
18399;SDS011;9326;49.468;11.008;2023-05-07T18:57:12;3.80;;;3.50;;
18399;SDS011;9326;49.468;11.008;2023-05-07T18:59:40;4.47;;;3.30;;
18399;SDS011;9326;49.468;11.008;2023-05-07T19:02:07;4.47;;;3.57;;
18399;SDS011;9326;49.468;11.008;2023-05-07T19:04:35;3.60;;;3.30;;
18399;SDS011;9326;49.468;11.008;2023-05-07T19:07:03;3.60;;;3.30;;
18399;SDS011;9326;49.468;11.008;2023-05-07T19:09:30;3.50;;;3.20;;
18399;SDS011;9326;49.468;11.008;2023-05-07T19:11:57;4.20;;;3.80;;
18399;SDS011;9326;49.468;11.008;2023-05-07T19:14:26;3.57;;;3.27;;
18399;SDS011;9326;49.468;11.008;2023-05-07T19:16:53;3.37;;;3.00;;
18399;SDS011;9326;49.468;11.008;2023-05-07T19:19:20;3.27;;;3.07;;
18399;SDS011;9326;49.468;11.008;2023-05-07T19:21:47;3.87;;;3.50;;
18399;SDS011;9326;49.468;11.008;2023-05-07T19:24:16;3.77;;;3.47;;
18399;SDS011;9326;49.468;11.008;2023-05-07T19:26:43;3.53;;;3.30;;
18399;SDS011;9326;49.468;11.008;2023-05-07T19:29:10;4.40;;;3.77;;
18399;SDS011;9326;49.468;11.008;2023-05-07T19:31:37;3.90;;;3.40;;
18399;SDS011;9326;49.468;11.008;2023-05-07T19:34:04;4.90;;;3.80;;
18399;SDS011;9326;49.468;11.008;2023-05-07T19:36:31;3.53;;;3.23;;
18399;SDS011;9326;49.468;11.008;2023-05-07T19:38:58;3.80;;;3.40;;
18399;SDS011;9326;49.468;11.008;2023-05-07T19:41:27;3.67;;;3.30;;
18399;SDS011;9326;49.468;11.008;2023-05-07T19:43:54;4.93;;;3.60;;
18399;SDS011;9326;49.468;11.008;2023-05-07T19:46:21;3.83;;;3.53;;
18399;SDS011;9326;49.468;11.008;2023-05-07T19:48:48;4.83;;;3.37;;
18399;SDS011;9326;49.468;11.008;2023-05-07T19:51:15;3.80;;;3.50;;
18399;SDS011;9326;49.468;11.008;2023-05-07T19:53:42;3.70;;;3.40;;
18399;SDS011;9326;49.468;11.008;2023-05-07T19:56:10;3.57;;;3.27;;
18399;SDS011;9326;49.468;11.008;2023-05-07T19:58:38;3.87;;;3.47;;